sensor_id;sensor_type;location;lat;lon;timestamp;P1;durP1;ratioP1;P2;durP2;ratioP2
37221;SDS011;23119;51.842;-2.230;2022-08-23T00:02:25;1.67;;;0.70;;
37221;SDS011;23119;51.842;-2.230;2022-08-23T00:04:54;1.95;;;0.80;;
37221;SDS011;23119;51.842;-2.230;2022-08-23T00:07:20;1.98;;;0.77;;
37221;SDS011;23119;51.842;-2.230;2022-08-23T00:09:45;2.50;;;0.80;;
37221;SDS011;23119;51.842;-2.230;2022-08-23T00:12:20;3.58;;;0.70;;
37221;SDS011;23119;51.842;-2.230;2022-08-23T00:14:48;3.17;;;0.80;;
37221;SDS011;23119;51.842;-2.230;2022-08-23T00:17:16;2.08;;;0.77;;
37221;SDS011;23119;51.842;-2.230;2022-08-23T00:19:43;1.15;;;0.70;;
37221;SDS011;23119;51.842;-2.230;2022-08-23T00:22:12;2.45;;;0.70;;
37221;SDS011;23119;51.842;-2.230;2022-08-23T00:24:39;2.50;;;0.80;;
37221;SDS011;23119;51.842;-2.230;2022-08-23T00:27:07;3.28;;;1.17;;
37221;SDS011;23119;51.842;-2.230;2022-08-23T00:32:07;1.45;;;0.60;;
37221;SDS011;23119;51.842;-2.230;2022-08-23T00:34:37;1.25;;;0.68;;
37221;SDS011;23119;51.842;-2.230;2022-08-23T00:37:04;1.30;;;0.70;;
37221;SDS011;23119;51.842;-2.230;2022-08-23T00:39:31;2.13;;;0.75;;
37221;SDS011;23119;51.842;-2.230;2022-08-23T00:42:04;1.83;;;0.80;;
37221;SDS011;23119;51.842;-2.230;2022-08-23T00:44:59;1.20;;;0.70;;
37221;SDS011;23119;51.842;-2.230;2022-08-23T00:47:47;1.27;;;0.70;;
37221;SDS011;23119;51.842;-2.230;2022-08-23T00:50:29;1.60;;;0.80;;
37221;SDS011;23119;51.842;-2.230;2022-08-23T00:53:07;2.47;;;0.70;;
37221;SDS011;23119;51.842;-2.230;2022-08-23T00:55:39;2.40;;;0.90;;
37221;SDS011;23119;51.842;-2.230;2022-08-23T00:58:09;3.17;;;1.00;;
37221;SDS011;23119;51.842;-2.230;2022-08-23T01:00:42;1.55;;;0.82;;
37221;SDS011;23119;51.842;-2.230;2022-08-23T01:03:08;2.28;;;0.90;;
37221;SDS011;23119;51.842;-2.230;2022-08-23T01:05:44;2.92;;;0.85;;
37221;SDS011;23119;51.842;-2.230;2022-08-23T01:08:14;1.42;;;0.80;;
37221;SDS011;23119;51.842;-2.230;2022-08-23T01:10:42;1.95;;;0.80;;
37221;SDS011;23119;51.842;-2.230;2022-08-23T01:13:18;1.80;;;0.82;;
37221;SDS011;23119;51.842;-2.230;2022-08-23T01:15:59;1.25;;;0.65;;
37221;SDS011;23119;51.842;-2.230;2022-08-23T01:18:33;1.95;;;0.70;;
37221;SDS011;23119;51.842;-2.230;2022-08-23T01:23:51;2.50;;;0.70;;
37221;SDS011;23119;51.842;-2.230;2022-08-23T01:26:21;0.85;;;0.50;;
37221;SDS011;23119;51.842;-2.230;2022-08-23T01:29:00;1.08;;;0.60;;
37221;SDS011;23119;51.842;-2.230;2022-08-23T01:31:28;2.67;;;0.50;;
37221;SDS011;23119;51.842;-2.230;2022-08-23T01:33:58;2.25;;;0.65;;
37221;SDS011;23119;51.842;-2.230;2022-08-23T01:36:26;1.85;;;0.50;;
37221;SDS011;23119;51.842;-2.230;2022-08-23T01:38:55;0.68;;;0.43;;
37221;SDS011;23119;51.842;-2.230;2022-08-23T01:41:21;0.60;;;0.40;;
37221;SDS011;23119;51.842;-2.230;2022-08-23T01:43:47;0.80;;;0.40;;
37221;SDS011;23119;51.842;-2.230;2022-08-23T01:46:19;1.17;;;0.30;;
37221;SDS011;23119;51.842;-2.230;2022-08-23T01:48:47;1.35;;;0.50;;
37221;SDS011;23119;51.842;-2.230;2022-08-23T01:51:15;0.77;;;0.40;;
37221;SDS011;23119;51.842;-2.230;2022-08-23T01:53:45;1.80;;;0.50;;
37221;SDS011;23119;51.842;-2.230;2022-08-23T01:56:17;1.10;;;0.50;;
37221;SDS011;23119;51.842;-2.230;2022-08-23T01:58:47;1.00;;;0.50;;
37221;SDS011;23119;51.842;-2.230;2022-08-23T02:01:17;0.95;;;0.40;;
37221;SDS011;23119;51.842;-2.230;2022-08-23T02:03:45;0.88;;;0.40;;
37221;SDS011;23119;51.842;-2.230;2022-08-23T02:06:11;1.08;;;0.52;;
37221;SDS011;23119;51.842;-2.230;2022-08-23T02:08:36;2.70;;;0.57;;
37221;SDS011;23119;51.842;-2.230;2022-08-23T02:11:21;1.05;;;0.40;;
37221;SDS011;23119;51.842;-2.230;2022-08-23T02:13:49;0.77;;;0.30;;
37221;SDS011;23119;51.842;-2.230;2022-08-23T02:16:22;0.63;;;0.30;;
37221;SDS011;23119;51.842;-2.230;2022-08-23T02:18:54;1.67;;;0.32;;
37221;SDS011;23119;51.842;-2.230;2022-08-23T02:21:25;1.35;;;0.30;;
37221;SDS011;23119;51.842;-2.230;2022-08-23T02:23:53;1.13;;;0.30;;
37221;SDS011;23119;51.842;-2.230;2022-08-23T02:26:19;2.90;;;0.73;;
37221;SDS011;23119;51.842;-2.230;2022-08-23T02:28:52;1.55;;;0.30;;
37221;SDS011;23119;51.842;-2.230;2022-08-23T02:31:18;1.40;;;0.30;;
37221;SDS011;23119;51.842;-2.230;2022-08-23T02:33:45;2.28;;;0.50;;
37221;SDS011;23119;51.842;-2.230;2022-08-23T02:36:12;1.20;;;0.30;;
37221;SDS011;23119;51.842;-2.230;2022-08-23T02:38:38;0.63;;;0.22;;
37221;SDS011;23119;51.842;-2.230;2022-08-23T02:41:04;4.38;;;0.30;;
37221;SDS011;23119;51.842;-2.230;2022-08-23T02:43:40;3.28;;;0.40;;
37221;SDS011;23119;51.842;-2.230;2022-08-23T02:46:06;2.10;;;0.40;;
37221;SDS011;23119;51.842;-2.230;2022-08-23T02:48:42;3.15;;;0.50;;
37221;SDS011;23119;51.842;-2.230;2022-08-23T02:51:08;2.42;;;0.50;;
37221;SDS011;23119;51.842;-2.230;2022-08-23T02:53:34;3.65;;;0.30;;
37221;SDS011;23119;51.842;-2.230;2022-08-23T02:56:02;2.20;;;0.32;;
37221;SDS011;23119;51.842;-2.230;2022-08-23T02:58:31;4.05;;;0.40;;
37221;SDS011;23119;51.842;-2.230;2022-08-23T03:00:59;3.17;;;0.45;;
37221;SDS011;23119;51.842;-2.230;2022-08-23T03:03:25;2.15;;;0.40;;
37221;SDS011;23119;51.842;-2.230;2022-08-23T03:05:51;1.98;;;0.30;;
37221;SDS011;23119;51.842;-2.230;2022-08-23T03:08:20;1.30;;;0.40;;
37221;SDS011;23119;51.842;-2.230;2022-08-23T03:10:49;2.53;;;0.40;;
37221;SDS011;23119;51.842;-2.230;2022-08-23T03:13:19;4.05;;;0.32;;
37221;SDS011;23119;51.842;-2.230;2022-08-23T03:15:44;0.88;;;0.20;;
37221;SDS011;23119;51.842;-2.230;2022-08-23T03:18:13;2.38;;;0.30;;
37221;SDS011;23119;51.842;-2.230;2022-08-23T03:20:41;3.60;;;0.60;;
37221;SDS011;23119;51.842;-2.230;2022-08-23T03:23:10;2.85;;;0.30;;
37221;SDS011;23119;51.842;-2.230;2022-08-23T03:25:36;1.50;;;0.40;;
37221;SDS011;23119;51.842;-2.230;2022-08-23T03:28:03;2.95;;;0.75;;
37221;SDS011;23119;51.842;-2.230;2022-08-23T03:30:30;3.40;;;0.40;;
37221;SDS011;23119;51.842;-2.230;2022-08-23T03:32:57;2.03;;;0.50;;
37221;SDS011;23119;51.842;-2.230;2022-08-23T03:35:25;1.48;;;0.30;;
37221;SDS011;23119;51.842;-2.230;2022-08-23T03:37:54;3.97;;;0.30;;
37221;SDS011;23119;51.842;-2.230;2022-08-23T03:40:26;2.88;;;0.50;;
37221;SDS011;23119;51.842;-2.230;2022-08-23T03:42:54;3.88;;;0.40;;
37221;SDS011;23119;51.842;-2.230;2022-08-23T03:45:20;2.30;;;0.38;;
37221;SDS011;23119;51.842;-2.230;2022-08-23T03:47:48;3.33;;;0.40;;
37221;SDS011;23119;51.842;-2.230;2022-08-23T03:50:14;3.42;;;0.32;;
37221;SDS011;23119;51.842;-2.230;2022-08-23T03:52:39;3.88;;;0.40;;
37221;SDS011;23119;51.842;-2.230;2022-08-23T03:55:05;4.85;;;0.50;;
37221;SDS011;23119;51.842;-2.230;2022-08-23T03:57:34;2.88;;;0.50;;
37221;SDS011;23119;51.842;-2.230;2022-08-23T04:00:03;4.38;;;0.50;;
37221;SDS011;23119;51.842;-2.230;2022-08-23T04:02:33;3.58;;;0.45;;
37221;SDS011;23119;51.842;-2.230;2022-08-23T04:05:01;6.45;;;0.40;;
37221;SDS011;23119;51.842;-2.230;2022-08-23T04:07:27;5.20;;;0.50;;
37221;SDS011;23119;51.842;-2.230;2022-08-23T04:09:56;3.28;;;0.40;;
37221;SDS011;23119;51.842;-2.230;2022-08-23T04:12:22;2.70;;;0.50;;
37221;SDS011;23119;51.842;-2.230;2022-08-23T04:14:50;2.80;;;0.52;;
37221;SDS011;23119;51.842;-2.230;2022-08-23T04:17:17;2.42;;;0.40;;
37221;SDS011;23119;51.842;-2.230;2022-08-23T04:19:44;2.63;;;0.60;;
37221;SDS011;23119;51.842;-2.230;2022-08-23T04:22:13;2.13;;;0.50;;
37221;SDS011;23119;51.842;-2.230;2022-08-23T04:24:41;4.05;;;0.50;;
37221;SDS011;23119;51.842;-2.230;2022-08-23T04:27:12;4.38;;;0.55;;
37221;SDS011;23119;51.842;-2.230;2022-08-23T04:29:38;5.47;;;0.50;;
37221;SDS011;23119;51.842;-2.230;2022-08-23T04:32:05;5.10;;;1.35;;
37221;SDS011;23119;51.842;-2.230;2022-08-23T04:34:36;4.05;;;0.60;;
37221;SDS011;23119;51.842;-2.230;2022-08-23T04:37:12;3.22;;;0.50;;
37221;SDS011;23119;51.842;-2.230;2022-08-23T04:39:38;2.83;;;0.50;;
37221;SDS011;23119;51.842;-2.230;2022-08-23T04:42:22;4.25;;;0.90;;
37221;SDS011;23119;51.842;-2.230;2022-08-23T04:44:49;2.55;;;0.50;;
37221;SDS011;23119;51.842;-2.230;2022-08-23T04:47:15;3.13;;;0.55;;
37221;SDS011;23119;51.842;-2.230;2022-08-23T04:49:41;4.20;;;0.70;;
37221;SDS011;23119;51.842;-2.230;2022-08-23T04:52:11;3.75;;;0.60;;
37221;SDS011;23119;51.842;-2.230;2022-08-23T04:54:38;5.88;;;0.88;;
37221;SDS011;23119;51.842;-2.230;2022-08-23T04:57:04;3.88;;;0.70;;
37221;SDS011;23119;51.842;-2.230;2022-08-23T04:59:32;3.53;;;0.68;;
37221;SDS011;23119;51.842;-2.230;2022-08-23T05:02:01;7.07;;;0.70;;
37221;SDS011;23119;51.842;-2.230;2022-08-23T05:04:26;3.88;;;0.80;;
37221;SDS011;23119;51.842;-2.230;2022-08-23T05:06:57;6.18;;;0.95;;
37221;SDS011;23119;51.842;-2.230;2022-08-23T05:09:23;2.90;;;0.75;;
37221;SDS011;23119;51.842;-2.230;2022-08-23T05:11:51;4.85;;;1.05;;
37221;SDS011;23119;51.842;-2.230;2022-08-23T05:14:21;3.90;;;0.73;;
37221;SDS011;23119;51.842;-2.230;2022-08-23T05:16:49;4.03;;;0.70;;
37221;SDS011;23119;51.842;-2.230;2022-08-23T05:19:22;3.28;;;0.68;;
37221;SDS011;23119;51.842;-2.230;2022-08-23T05:21:48;8.20;;;0.70;;
37221;SDS011;23119;51.842;-2.230;2022-08-23T05:24:14;4.53;;;1.00;;
37221;SDS011;23119;51.842;-2.230;2022-08-23T05:26:42;4.40;;;0.75;;
37221;SDS011;23119;51.842;-2.230;2022-08-23T05:29:08;3.97;;;0.70;;
37221;SDS011;23119;51.842;-2.230;2022-08-23T05:31:34;4.78;;;0.82;;
37221;SDS011;23119;51.842;-2.230;2022-08-23T05:33:59;6.78;;;0.80;;
37221;SDS011;23119;51.842;-2.230;2022-08-23T05:36:25;3.35;;;0.77;;
37221;SDS011;23119;51.842;-2.230;2022-08-23T05:38:54;5.38;;;0.75;;
37221;SDS011;23119;51.842;-2.230;2022-08-23T05:41:23;3.35;;;0.77;;
37221;SDS011;23119;51.842;-2.230;2022-08-23T05:43:48;3.22;;;1.00;;
37221;SDS011;23119;51.842;-2.230;2022-08-23T05:46:18;5.28;;;0.70;;
37221;SDS011;23119;51.842;-2.230;2022-08-23T05:48:46;3.83;;;0.80;;
37221;SDS011;23119;51.842;-2.230;2022-08-23T05:53:43;5.40;;;0.70;;
37221;SDS011;23119;51.842;-2.230;2022-08-23T05:56:29;6.25;;;0.70;;
37221;SDS011;23119;51.842;-2.230;2022-08-23T05:58:58;8.15;;;0.80;;
37221;SDS011;23119;51.842;-2.230;2022-08-23T06:01:31;1.77;;;0.68;;
37221;SDS011;23119;51.842;-2.230;2022-08-23T06:03:58;5.70;;;0.57;;
37221;SDS011;23119;51.842;-2.230;2022-08-23T06:06:31;4.97;;;0.80;;
37221;SDS011;23119;51.842;-2.230;2022-08-23T06:08:57;5.15;;;0.95;;
37221;SDS011;23119;51.842;-2.230;2022-08-23T06:11:24;4.10;;;0.70;;
37221;SDS011;23119;51.842;-2.230;2022-08-23T06:13:52;4.30;;;0.73;;
37221;SDS011;23119;51.842;-2.230;2022-08-23T06:16:36;5.35;;;0.70;;
37221;SDS011;23119;51.842;-2.230;2022-08-23T06:19:09;2.60;;;0.57;;
37221;SDS011;23119;51.842;-2.230;2022-08-23T06:24:09;5.30;;;0.75;;
37221;SDS011;23119;51.842;-2.230;2022-08-23T06:26:39;4.70;;;0.88;;
37221;SDS011;23119;51.842;-2.230;2022-08-23T06:29:14;7.07;;;1.00;;
37221;SDS011;23119;51.842;-2.230;2022-08-23T06:31:50;4.93;;;1.05;;
37221;SDS011;23119;51.842;-2.230;2022-08-23T06:37:06;3.05;;;0.70;;
37221;SDS011;23119;51.842;-2.230;2022-08-23T06:39:52;3.00;;;0.70;;
37221;SDS011;23119;51.842;-2.230;2022-08-23T06:42:20;2.63;;;0.75;;
37221;SDS011;23119;51.842;-2.230;2022-08-23T06:44:48;7.13;;;1.02;;
37221;SDS011;23119;51.842;-2.230;2022-08-23T06:47:14;4.50;;;1.35;;
37221;SDS011;23119;51.842;-2.230;2022-08-23T06:49:41;3.22;;;0.70;;
37221;SDS011;23119;51.842;-2.230;2022-08-23T06:52:06;2.63;;;0.70;;
37221;SDS011;23119;51.842;-2.230;2022-08-23T06:54:36;2.70;;;0.55;;
37221;SDS011;23119;51.842;-2.230;2022-08-23T06:57:05;4.18;;;0.70;;
37221;SDS011;23119;51.842;-2.230;2022-08-23T06:59:31;3.15;;;0.60;;
37221;SDS011;23119;51.842;-2.230;2022-08-23T07:02:01;3.08;;;0.70;;
37221;SDS011;23119;51.842;-2.230;2022-08-23T07:07:01;7.88;;;0.80;;
37221;SDS011;23119;51.842;-2.230;2022-08-23T07:09:33;2.60;;;0.52;;
37221;SDS011;23119;51.842;-2.230;2022-08-23T07:12:00;1.70;;;0.60;;
37221;SDS011;23119;51.842;-2.230;2022-08-23T07:14:28;4.88;;;0.55;;
37221;SDS011;23119;51.842;-2.230;2022-08-23T07:16:58;2.22;;;0.82;;
37221;SDS011;23119;51.842;-2.230;2022-08-23T07:19:28;1.63;;;0.40;;
37221;SDS011;23119;51.842;-2.230;2022-08-23T07:21:58;4.47;;;0.50;;
37221;SDS011;23119;51.842;-2.230;2022-08-23T07:24:26;3.30;;;0.50;;
37221;SDS011;23119;51.842;-2.230;2022-08-23T07:26:52;1.98;;;0.45;;
37221;SDS011;23119;51.842;-2.230;2022-08-23T07:29:20;3.90;;;0.50;;
37221;SDS011;23119;51.842;-2.230;2022-08-23T07:31:48;3.88;;;0.52;;
37221;SDS011;23119;51.842;-2.230;2022-08-23T07:34:22;2.85;;;0.57;;
37221;SDS011;23119;51.842;-2.230;2022-08-23T07:36:50;2.58;;;0.40;;
37221;SDS011;23119;51.842;-2.230;2022-08-23T07:39:17;2.28;;;0.30;;
37221;SDS011;23119;51.842;-2.230;2022-08-23T07:41:47;2.00;;;0.50;;
37221;SDS011;23119;51.842;-2.230;2022-08-23T07:44:13;4.57;;;0.50;;
37221;SDS011;23119;51.842;-2.230;2022-08-23T07:46:42;2.55;;;0.57;;
37221;SDS011;23119;51.842;-2.230;2022-08-23T07:49:11;1.73;;;0.40;;
37221;SDS011;23119;51.842;-2.230;2022-08-23T07:51:40;1.65;;;0.32;;
37221;SDS011;23119;51.842;-2.230;2022-08-23T07:54:12;2.92;;;0.40;;
37221;SDS011;23119;51.842;-2.230;2022-08-23T07:56:44;3.58;;;0.30;;
37221;SDS011;23119;51.842;-2.230;2022-08-23T07:59:10;3.50;;;0.50;;
37221;SDS011;23119;51.842;-2.230;2022-08-23T08:01:36;2.33;;;0.50;;
37221;SDS011;23119;51.842;-2.230;2022-08-23T08:04:03;1.60;;;0.30;;
37221;SDS011;23119;51.842;-2.230;2022-08-23T08:06:37;1.20;;;0.30;;
37221;SDS011;23119;51.842;-2.230;2022-08-23T08:09:08;1.20;;;0.30;;
37221;SDS011;23119;51.842;-2.230;2022-08-23T08:11:35;2.90;;;0.35;;
37221;SDS011;23119;51.842;-2.230;2022-08-23T08:14:05;2.15;;;0.20;;
37221;SDS011;23119;51.842;-2.230;2022-08-23T08:16:37;0.90;;;0.20;;
37221;SDS011;23119;51.842;-2.230;2022-08-23T08:19:08;2.10;;;0.30;;
37221;SDS011;23119;51.842;-2.230;2022-08-23T08:21:39;0.88;;;0.20;;
37221;SDS011;23119;51.842;-2.230;2022-08-23T08:24:07;0.70;;;0.20;;
37221;SDS011;23119;51.842;-2.230;2022-08-23T08:26:34;1.17;;;0.20;;
37221;SDS011;23119;51.842;-2.230;2022-08-23T08:29:03;1.48;;;0.30;;
37221;SDS011;23119;51.842;-2.230;2022-08-23T08:31:30;0.68;;;0.20;;
37221;SDS011;23119;51.842;-2.230;2022-08-23T08:33:56;3.35;;;0.30;;
37221;SDS011;23119;51.842;-2.230;2022-08-23T08:36:38;1.75;;;0.30;;
37221;SDS011;23119;51.842;-2.230;2022-08-23T08:39:22;0.95;;;0.20;;
37221;SDS011;23119;51.842;-2.230;2022-08-23T08:47:05;1.65;;;0.30;;
37221;SDS011;23119;51.842;-2.230;2022-08-23T08:49:48;1.50;;;0.47;;
37221;SDS011;23119;51.842;-2.230;2022-08-23T08:52:22;1.17;;;0.40;;
37221;SDS011;23119;51.842;-2.230;2022-08-23T08:54:53;1.75;;;0.57;;
37221;SDS011;23119;51.842;-2.230;2022-08-23T08:57:26;3.97;;;0.40;;
37221;SDS011;23119;51.842;-2.230;2022-08-23T09:00:00;1.33;;;0.30;;
37221;SDS011;23119;51.842;-2.230;2022-08-23T09:02:37;3.13;;;0.30;;
37221;SDS011;23119;51.842;-2.230;2022-08-23T09:05:10;3.22;;;0.70;;
37221;SDS011;23119;51.842;-2.230;2022-08-23T09:18:25;1.50;;;0.40;;
37221;SDS011;23119;51.842;-2.230;2022-08-23T09:20:52;1.58;;;0.30;;
37221;SDS011;23119;51.842;-2.230;2022-08-23T09:23:21;1.75;;;0.30;;
37221;SDS011;23119;51.842;-2.230;2022-08-23T09:25:56;1.23;;;0.30;;
37221;SDS011;23119;51.842;-2.230;2022-08-23T09:28:25;1.52;;;0.40;;
37221;SDS011;23119;51.842;-2.230;2022-08-23T09:30:55;2.15;;;0.30;;
37221;SDS011;23119;51.842;-2.230;2022-08-23T09:33:37;1.35;;;0.30;;
37221;SDS011;23119;51.842;-2.230;2022-08-23T09:38:34;2.28;;;0.30;;
37221;SDS011;23119;51.842;-2.230;2022-08-23T09:41:00;2.63;;;0.30;;
37221;SDS011;23119;51.842;-2.230;2022-08-23T09:43:26;2.88;;;0.40;;
37221;SDS011;23119;51.842;-2.230;2022-08-23T09:45:59;1.25;;;0.30;;
37221;SDS011;23119;51.842;-2.230;2022-08-23T09:48:46;2.35;;;0.30;;
37221;SDS011;23119;51.842;-2.230;2022-08-23T09:51:34;2.70;;;0.30;;
37221;SDS011;23119;51.842;-2.230;2022-08-23T09:54:12;1.42;;;0.20;;
37221;SDS011;23119;51.842;-2.230;2022-08-23T09:56:55;1.50;;;0.20;;
37221;SDS011;23119;51.842;-2.230;2022-08-23T10:02:04;0.73;;;0.20;;
37221;SDS011;23119;51.842;-2.230;2022-08-23T10:04:44;2.28;;;0.38;;
37221;SDS011;23119;51.842;-2.230;2022-08-23T10:07:38;0.85;;;0.30;;
37221;SDS011;23119;51.842;-2.230;2022-08-23T10:12:57;0.82;;;0.20;;
37221;SDS011;23119;51.842;-2.230;2022-08-23T10:15:33;2.05;;;0.20;;
37221;SDS011;23119;51.842;-2.230;2022-08-23T10:20:52;0.63;;;0.10;;
37221;SDS011;23119;51.842;-2.230;2022-08-23T10:23:33;0.80;;;0.20;;
37221;SDS011;23119;51.842;-2.230;2022-08-23T10:26:34;0.50;;;0.20;;
37221;SDS011;23119;51.842;-2.230;2022-08-23T10:37:38;0.50;;;0.20;;
37221;SDS011;23119;51.842;-2.230;2022-08-23T10:45:58;1.15;;;0.28;;
37221;SDS011;23119;51.842;-2.230;2022-08-23T10:49:08;1.00;;;0.65;;
37221;SDS011;23119;51.842;-2.230;2022-08-23T10:51:25;0.52;;;0.20;;
37221;SDS011;23119;51.842;-2.230;2022-08-23T10:56:30;0.50;;;0.20;;
37221;SDS011;23119;51.842;-2.230;2022-08-23T10:59:04;2.70;;;0.10;;
37221;SDS011;23119;51.842;-2.230;2022-08-23T11:01:54;0.53;;;0.20;;
37221;SDS011;23119;51.842;-2.230;2022-08-23T11:07:39;0.20;;;0.10;;
37221;SDS011;23119;51.842;-2.230;2022-08-23T11:10:42;0.38;;;0.20;;
37221;SDS011;23119;51.842;-2.230;2022-08-23T11:15:42;0.47;;;0.20;;
37221;SDS011;23119;51.842;-2.230;2022-08-23T11:20:55;1.40;;;0.25;;
37221;SDS011;23119;51.842;-2.230;2022-08-23T11:23:53;0.95;;;0.20;;
37221;SDS011;23119;51.842;-2.230;2022-08-23T11:31:48;1.05;;;0.30;;
37221;SDS011;23119;51.842;-2.230;2022-08-23T11:34:27;1.35;;;0.20;;
37221;SDS011;23119;51.842;-2.230;2022-08-23T11:42:43;0.70;;;0.10;;
37221;SDS011;23119;51.842;-2.230;2022-08-23T11:45:23;1.63;;;0.10;;
37221;SDS011;23119;51.842;-2.230;2022-08-23T11:48:13;3.42;;;0.10;;
37221;SDS011;23119;51.842;-2.230;2022-08-23T12:01:41;2.42;;;0.10;;
37221;SDS011;23119;51.842;-2.230;2022-08-23T12:04:25;0.38;;;0.03;;
37221;SDS011;23119;51.842;-2.230;2022-08-23T12:07:04;0.77;;;0.10;;
37221;SDS011;23119;51.842;-2.230;2022-08-23T12:12:10;0.17;;;0.00;;
37221;SDS011;23119;51.842;-2.230;2022-08-23T12:14:49;0.77;;;0.10;;
37221;SDS011;23119;51.842;-2.230;2022-08-23T12:25:29;3.95;;;0.20;;
37221;SDS011;23119;51.842;-2.230;2022-08-23T12:31:03;0.90;;;0.10;;
37221;SDS011;23119;51.842;-2.230;2022-08-23T12:36:20;0.65;;;0.20;;
37221;SDS011;23119;51.842;-2.230;2022-08-23T12:42:02;1.23;;;0.05;;
37221;SDS011;23119;51.842;-2.230;2022-08-23T12:44:33;0.30;;;0.10;;
37221;SDS011;23119;51.842;-2.230;2022-08-23T12:47:08;0.43;;;0.10;;
37221;SDS011;23119;51.842;-2.230;2022-08-23T12:52:26;0.40;;;0.10;;
37221;SDS011;23119;51.842;-2.230;2022-08-23T12:54:57;0.40;;;0.10;;
37221;SDS011;23119;51.842;-2.230;2022-08-23T12:57:36;0.55;;;0.10;;
37221;SDS011;23119;51.842;-2.230;2022-08-23T13:05:45;0.32;;;0.20;;
37221;SDS011;23119;51.842;-2.230;2022-08-23T13:08:15;0.60;;;0.17;;
37221;SDS011;23119;51.842;-2.230;2022-08-23T13:10:46;1.13;;;0.20;;
37221;SDS011;23119;51.842;-2.230;2022-08-23T13:13:22;1.48;;;0.10;;
37221;SDS011;23119;51.842;-2.230;2022-08-23T13:15:51;0.57;;;0.10;;
37221;SDS011;23119;51.842;-2.230;2022-08-23T13:18:31;0.22;;;0.10;;
37221;SDS011;23119;51.842;-2.230;2022-08-23T13:23:50;0.50;;;0.10;;
37221;SDS011;23119;51.842;-2.230;2022-08-23T13:34:47;0.20;;;0.10;;
37221;SDS011;23119;51.842;-2.230;2022-08-23T13:37:25;2.50;;;0.10;;
37221;SDS011;23119;51.842;-2.230;2022-08-23T13:40:08;1.95;;;0.10;;
37221;SDS011;23119;51.842;-2.230;2022-08-23T13:48:20;1.25;;;0.20;;
37221;SDS011;23119;51.842;-2.230;2022-08-23T13:50:47;0.60;;;0.10;;
37221;SDS011;23119;51.842;-2.230;2022-08-23T13:53:14;1.58;;;0.30;;
37221;SDS011;23119;51.842;-2.230;2022-08-23T13:55:48;0.50;;;0.10;;
37221;SDS011;23119;51.842;-2.230;2022-08-23T13:58:37;0.75;;;0.20;;
37221;SDS011;23119;51.842;-2.230;2022-08-23T14:01:08;0.98;;;0.20;;
37221;SDS011;23119;51.842;-2.230;2022-08-23T14:03:41;1.05;;;0.20;;
37221;SDS011;23119;51.842;-2.230;2022-08-23T14:06:06;0.70;;;0.20;;
37221;SDS011;23119;51.842;-2.230;2022-08-23T14:08:35;2.20;;;0.20;;
37221;SDS011;23119;51.842;-2.230;2022-08-23T14:11:01;1.60;;;0.45;;
37221;SDS011;23119;51.842;-2.230;2022-08-23T14:13:27;0.82;;;0.20;;
37221;SDS011;23119;51.842;-2.230;2022-08-23T14:15:59;1.05;;;0.40;;
37221;SDS011;23119;51.842;-2.230;2022-08-23T14:18:29;0.50;;;0.20;;
37221;SDS011;23119;51.842;-2.230;2022-08-23T14:21:00;1.00;;;0.20;;
37221;SDS011;23119;51.842;-2.230;2022-08-23T14:23:28;0.82;;;0.20;;
37221;SDS011;23119;51.842;-2.230;2022-08-23T14:25:58;1.30;;;0.20;;
37221;SDS011;23119;51.842;-2.230;2022-08-23T14:28:25;1.77;;;0.30;;
37221;SDS011;23119;51.842;-2.230;2022-08-23T14:30:53;1.20;;;0.28;;
37221;SDS011;23119;51.842;-2.230;2022-08-23T14:33:20;2.05;;;0.22;;
37221;SDS011;23119;51.842;-2.230;2022-08-23T14:35:46;0.57;;;0.20;;
37221;SDS011;23119;51.842;-2.230;2022-08-23T14:38:12;0.73;;;0.20;;
37221;SDS011;23119;51.842;-2.230;2022-08-23T14:40:39;0.55;;;0.25;;
37221;SDS011;23119;51.842;-2.230;2022-08-23T14:43:25;0.45;;;0.20;;
37221;SDS011;23119;51.842;-2.230;2022-08-23T14:45:51;0.52;;;0.20;;
37221;SDS011;23119;51.842;-2.230;2022-08-23T14:48:20;1.17;;;0.30;;
37221;SDS011;23119;51.842;-2.230;2022-08-23T14:50:47;2.13;;;0.25;;
37221;SDS011;23119;51.842;-2.230;2022-08-23T14:53:17;0.70;;;0.20;;
37221;SDS011;23119;51.842;-2.230;2022-08-23T14:55:54;2.00;;;0.30;;
37221;SDS011;23119;51.842;-2.230;2022-08-23T14:58:23;2.15;;;0.20;;
37221;SDS011;23119;51.842;-2.230;2022-08-23T15:00:52;2.80;;;0.20;;
37221;SDS011;23119;51.842;-2.230;2022-08-23T15:03:19;3.78;;;0.30;;
37221;SDS011;23119;51.842;-2.230;2022-08-23T15:05:52;2.72;;;0.30;;
37221;SDS011;23119;51.842;-2.230;2022-08-23T15:08:18;0.93;;;0.35;;
37221;SDS011;23119;51.842;-2.230;2022-08-23T15:10:45;0.63;;;0.30;;
37221;SDS011;23119;51.842;-2.230;2022-08-23T15:13:11;0.90;;;0.30;;
37221;SDS011;23119;51.842;-2.230;2022-08-23T15:15:41;0.93;;;0.20;;
37221;SDS011;23119;51.842;-2.230;2022-08-23T15:18:07;0.82;;;0.20;;
37221;SDS011;23119;51.842;-2.230;2022-08-23T15:20:34;4.63;;;0.30;;
37221;SDS011;23119;51.842;-2.230;2022-08-23T15:23:03;2.28;;;0.30;;
37221;SDS011;23119;51.842;-2.230;2022-08-23T15:25:32;4.85;;;2.72;;
37221;SDS011;23119;51.842;-2.230;2022-08-23T15:28:04;0.88;;;0.20;;
37221;SDS011;23119;51.842;-2.230;2022-08-23T15:30:36;1.15;;;0.30;;
37221;SDS011;23119;51.842;-2.230;2022-08-23T15:33:02;1.08;;;0.10;;
37221;SDS011;23119;51.842;-2.230;2022-08-23T15:35:28;0.95;;;0.30;;
37221;SDS011;23119;51.842;-2.230;2022-08-23T15:38:03;0.65;;;0.20;;
37221;SDS011;23119;51.842;-2.230;2022-08-23T15:40:29;1.10;;;0.20;;
37221;SDS011;23119;51.842;-2.230;2022-08-23T15:42:57;2.40;;;0.20;;
37221;SDS011;23119;51.842;-2.230;2022-08-23T15:45:26;0.95;;;0.22;;
37221;SDS011;23119;51.842;-2.230;2022-08-23T15:47:53;2.10;;;0.30;;
37221;SDS011;23119;51.842;-2.230;2022-08-23T15:50:22;0.90;;;0.30;;
37221;SDS011;23119;51.842;-2.230;2022-08-23T15:52:53;3.83;;;0.20;;
37221;SDS011;23119;51.842;-2.230;2022-08-23T15:55:19;0.70;;;0.30;;
37221;SDS011;23119;51.842;-2.230;2022-08-23T15:57:46;1.02;;;0.30;;
37221;SDS011;23119;51.842;-2.230;2022-08-23T16:00:17;1.08;;;0.30;;
37221;SDS011;23119;51.842;-2.230;2022-08-23T16:02:44;1.52;;;0.20;;
37221;SDS011;23119;51.842;-2.230;2022-08-23T16:05:14;1.17;;;0.20;;
37221;SDS011;23119;51.842;-2.230;2022-08-23T16:07:40;2.15;;;0.40;;
37221;SDS011;23119;51.842;-2.230;2022-08-23T16:10:07;2.72;;;0.30;;
37221;SDS011;23119;51.842;-2.230;2022-08-23T16:12:36;0.90;;;0.20;;
37221;SDS011;23119;51.842;-2.230;2022-08-23T16:15:05;2.08;;;0.30;;
37221;SDS011;23119;51.842;-2.230;2022-08-23T16:17:32;2.15;;;0.30;;
37221;SDS011;23119;51.842;-2.230;2022-08-23T16:19:59;3.15;;;0.30;;
37221;SDS011;23119;51.842;-2.230;2022-08-23T16:22:24;2.15;;;0.38;;
37221;SDS011;23119;51.842;-2.230;2022-08-23T16:24:50;0.77;;;0.20;;
37221;SDS011;23119;51.842;-2.230;2022-08-23T16:27:16;1.92;;;0.30;;
37221;SDS011;23119;51.842;-2.230;2022-08-23T16:29:42;1.05;;;0.20;;
37221;SDS011;23119;51.842;-2.230;2022-08-23T16:32:07;1.58;;;0.30;;
37221;SDS011;23119;51.842;-2.230;2022-08-23T16:34:35;0.75;;;0.30;;
37221;SDS011;23119;51.842;-2.230;2022-08-23T16:37:06;2.03;;;0.22;;
37221;SDS011;23119;51.842;-2.230;2022-08-23T16:39:36;1.13;;;0.20;;
37221;SDS011;23119;51.842;-2.230;2022-08-23T16:42:02;1.10;;;0.30;;
37221;SDS011;23119;51.842;-2.230;2022-08-23T16:44:30;3.47;;;0.30;;
37221;SDS011;23119;51.842;-2.230;2022-08-23T16:46:56;0.68;;;0.20;;
37221;SDS011;23119;51.842;-2.230;2022-08-23T16:49:32;3.70;;;0.40;;
37221;SDS011;23119;51.842;-2.230;2022-08-23T16:51:58;0.70;;;0.20;;
37221;SDS011;23119;51.842;-2.230;2022-08-23T16:54:24;0.57;;;0.20;;
37221;SDS011;23119;51.842;-2.230;2022-08-23T16:56:53;0.70;;;0.30;;
37221;SDS011;23119;51.842;-2.230;2022-08-23T16:59:19;0.90;;;0.22;;
37221;SDS011;23119;51.842;-2.230;2022-08-23T17:01:49;0.90;;;0.22;;
37221;SDS011;23119;51.842;-2.230;2022-08-23T17:04:20;0.40;;;0.20;;
37221;SDS011;23119;51.842;-2.230;2022-08-23T17:06:48;0.80;;;0.20;;
37221;SDS011;23119;51.842;-2.230;2022-08-23T17:09:17;1.85;;;0.20;;